Time;durP1;ratioP1;P1;durP2;ratioP2;P2;SDS_P1;SDS_P2;PMS_P1;PMS_P2;Temp;Humidity;BMP_temperature;BMP_pressure;BME280_temperature;BME280_humidity;BME280_pressure;Samples;Min_cycle;Max_cycle;Signal;HPM_P1;HPM_P2
2021/11/02 00:00:33;;;;;;;33.10;19.73;;;;;;;7.35;78.93;92926.00;5072643;28;20020;-44
2021/11/02 00:02:59;;;;;;;32.42;19.88;;;;;;;7.41;78.49;92929.31;5072527;28;20059;-44
2021/11/02 00:05:25;;;;;;;36.95;22.40;;;;;;;7.30;78.22;92926.88;5078389;28;20038;-46
2021/11/02 00:07:51;;;;;;;30.02;18.55;;;;;;;7.22;78.37;92924.09;5071838;28;20056;-44
2021/11/02 00:10:16;;;;;;;33.78;19.73;;;;;;;7.16;79.09;92907.03;5072291;28;20027;-43
2021/11/02 00:12:42;;;;;;;36.20;20.20;;;;;;;7.23;78.98;92914.59;5072288;28;20485;-44
2021/11/02 00:15:08;;;;;;;34.75;19.65;;;;;;;7.08;78.26;92900.75;5072095;28;20086;-45
2021/11/02 00:17:37;;;;;;;29.17;18.25;;;;;;;7.15;78.08;92907.56;5071920;28;20028;-44
2021/11/02 00:20:04;;;;;;;25.17;16.88;;;;;;;7.16;78.30;92903.56;5071967;28;20070;-47
2021/11/02 00:22:33;;;;;;;34.65;19.08;;;;;;;7.04;78.18;92888.66;5072192;28;20508;-45
2021/11/02 00:27:27;;;;;;;33.17;20.33;;;;;;;6.87;79.21;92887.09;5071734;28;20021;-43
2021/11/02 00:29:53;;;;;;;32.03;19.65;;;;;;;6.81;79.35;92894.00;5072047;28;20417;-44
2021/11/02 00:32:19;;;;;;;29.73;18.65;;;;;;;6.96;79.12;92898.84;5071830;28;20025;-44
2021/11/02 00:34:44;;;;;;;32.05;19.05;;;;;;;6.98;78.72;92890.81;5071972;28;20539;-46
2021/11/02 00:37:10;;;;;;;32.58;18.48;;;;;;;6.95;78.44;92883.66;5086393;28;20020;-44
2021/11/02 00:39:36;;;;;;;31.65;18.52;;;;;;;7.01;78.64;92879.50;5091699;28;20109;-48
2021/11/02 00:42:01;;;;;;;31.10;19.25;;;;;;;6.94;78.95;92873.94;5091709;28;20044;-46
2021/11/02 00:44:27;;;;;;;30.90;18.58;;;;;;;7.00;78.98;92880.75;5091772;28;20020;-47
2021/11/02 00:46:55;;;;;;;33.38;18.85;;;;;;;6.95;79.64;92876.19;5091923;28;20028;-46
2021/11/02 00:49:23;;;;;;;31.23;18.63;;;;;;;6.87;80.10;92880.84;5091818;28;20042;-47
2021/11/02 00:51:49;;;;;;;34.25;19.88;;;;;;;6.75;79.92;92880.44;5091941;28;20818;-46
2021/11/02 00:54:15;;;;;;;32.28;18.83;;;;;;;6.87;80.15;92903.56;5091764;28;20020;-49
2021/11/02 00:56:42;;;;;;;28.48;17.17;;;;;;;6.97;79.79;92892.84;5090547;28;20028;-45
2021/11/02 00:59:07;;;;;;;34.75;19.50;;;;;;;6.95;79.76;92891.91;5091206;28;20031;-49
2021/11/02 01:01:33;;;;;;;35.22;19.67;;;;;;;6.89;80.13;92894.78;5091644;28;20107;-46
2021/11/02 01:03:59;;;;;;;34.95;19.95;;;;;;;7.03;79.64;92900.91;5091614;28;20511;-46
2021/11/02 01:06:25;;;;;;;33.42;21.10;;;;;;;6.99;79.94;92890.28;5082087;28;20504;-44
2021/11/02 01:08:51;;;;;;;31.42;20.13;;;;;;;6.93;79.95;92883.47;5070924;28;20411;-45
2021/11/02 01:11:17;;;;;;;33.45;20.35;;;;;;;6.90;80.20;92882.53;5069904;28;20157;-44
2021/11/02 01:13:43;;;;;;;31.95;20.13;;;;;;;7.02;79.55;92878.22;5070836;28;20111;-46
2021/11/02 01:16:08;;;;;;;32.33;19.65;;;;;;;7.00;79.27;92878.03;5071095;28;20100;-48
2021/11/02 01:18:34;;;;;;;34.95;20.77;;;;;;;6.98;79.51;92866.84;5070668;28;20108;-46
2021/11/02 01:20:59;;;;;;;33.58;20.55;;;;;;;7.02;79.87;92850.78;5071522;28;20028;-48
2021/11/02 01:23:25;;;;;;;34.80;21.00;;;;;;;7.01;80.67;92859.56;5090990;28;20027;-46
2021/11/02 01:25:50;;;;;;;30.90;19.08;;;;;;;7.08;81.37;92853.38;5091188;28;20028;-48
2021/11/02 01:28:16;;;;;;;33.55;19.48;;;;;;;7.09;81.44;92852.81;5090523;28;20068;-47
2021/11/02 01:30:42;;;;;;;33.45;21.85;;;;;;;7.10;81.27;92850.81;5099271;28;20055;-47
2021/11/02 01:33:07;;;;;;;91.82;25.55;;;;;;;7.06;81.38;92861.41;5110184;28;20026;-46
2021/11/02 01:35:33;;;;;;;39.63;22.52;;;;;;;7.00;81.53;92863.56;5111389;27;20423;-50
2021/11/02 01:38:01;;;;;;;44.75;25.10;;;;;;;6.97;80.98;92864.66;5110932;28;20103;-49
2021/11/02 01:40:26;;;;;;;40.38;23.48;;;;;;;6.92;81.12;92869.00;5111210;28;20023;-47
2021/11/02 01:42:52;;;;;;;42.17;24.75;;;;;;;6.96;81.37;92874.88;5110971;28;20027;-47
2021/11/02 01:45:17;;;;;;;32.75;20.13;;;;;;;7.14;81.98;92876.66;5111011;28;20023;-45
2021/11/02 01:47:46;;;;;;;41.00;22.42;;;;;;;7.13;82.53;92877.91;5110997;28;20077;-47
2021/11/02 01:50:12;;;;;;;38.08;23.13;;;;;;;7.14;83.67;92882.16;5111146;28;20023;-46
2021/11/02 01:52:39;;;;;;;42.72;25.33;;;;;;;7.11;83.81;92861.25;5111059;28;20042;-48
2021/11/02 01:55:05;;;;;;;42.55;24.52;;;;;;;7.22;83.18;92874.69;5111007;28;20020;-47
2021/11/02 01:57:30;;;;;;;42.92;24.23;;;;;;;7.20;82.33;92866.25;5107793;28;20026;-45
2021/11/02 01:59:56;;;;;;;36.10;22.55;;;;;;;7.28;82.01;92863.53;5090248;28;20043;-44
2021/11/02 02:02:30;;;;;;;43.55;25.02;;;;;;;7.35;81.50;92863.59;5090289;28;20047;-48
2021/11/02 02:05:11;;;;;;;37.65;21.58;;;;;;;7.51;81.02;92858.91;5092378;28;20049;-45
2021/11/02 02:07:58;;;;;;;38.88;21.52;;;;;;;7.52;81.03;92850.09;5070542;28;20052;-45
2021/11/02 02:10:32;;;;;;;38.25;23.08;;;;;;;7.52;80.49;92854.84;5069906;28;20031;-47
2021/11/02 02:13:05;;;;;;;38.13;24.05;;;;;;;7.50;80.54;92852.66;5079402;28;20043;-45
2021/11/02 02:15:40;;;;;;;39.40;23.25;;;;;;;7.59;80.36;92860.41;5097850;28;20024;-46
2021/11/02 02:18:19;;;;;;;42.22;24.27;;;;;;;7.65;80.32;92852.72;5090389;28;20032;-47
2021/11/02 02:20:49;;;;;;;45.70;24.92;;;;;;;7.58;80.36;92847.19;5089354;28;20056;-44
2021/11/02 02:23:25;;;;;;;43.42;23.20;;;;;;;7.65;80.33;92841.00;5089060;28;20024;-45
2021/11/02 02:25:56;;;;;;;31.95;21.25;;;;;;;7.81;79.50;92834.28;5088876;28;20032;-46
2021/11/02 02:28:30;;;;;;;37.42;22.48;;;;;;;7.79;78.95;92845.09;5086069;28;20109;-45
2021/11/02 02:31:02;;;;;;;38.20;23.80;;;;;;;7.74;80.04;92858.97;5070146;28;20039;-46
2021/11/02 02:33:41;;;;;;;44.97;24.52;;;;;;;7.81;80.62;92850.03;5070185;28;20118;-44
2021/11/02 02:36:07;;;;;;;42.40;25.08;;;;;;;7.77;80.70;92847.66;5068997;28;20103;-45
2021/11/02 02:38:36;;;;;;;43.25;24.10;;;;;;;7.82;80.57;92854.97;5069704;28;20480;-46
2021/11/02 02:41:03;;;;;;;40.03;24.10;;;;;;;7.85;80.18;92834.66;5070000;28;20024;-45
2021/11/02 02:43:29;;;;;;;38.25;23.70;;;;;;;7.94;79.95;92825.88;5068542;28;20032;-47
2021/11/02 02:45:56;;;;;;;36.30;21.08;;;;;;;7.97;79.36;92830.28;5068889;28;20042;-46
2021/11/02 02:48:22;;;;;;;40.20;24.55;;;;;;;7.91;79.25;92828.97;5068825;28;20048;-44
2021/11/02 02:50:48;;;;;;;34.80;22.30;;;;;;;7.89;80.40;92828.78;5068786;28;20035;-42
2021/11/02 02:53:15;;;;;;;40.45;24.23;;;;;;;7.85;80.64;92815.41;5069877;28;20037;-47
2021/11/02 02:55:43;;;;;;;43.65;24.13;;;;;;;7.85;80.82;92803.69;5069636;28;20111;-46
2021/11/02 02:58:10;;;;;;;33.65;20.50;;;;;;;7.82;81.45;92789.00;5069815;28;20077;-44
2021/11/02 03:00:37;;;;;;;41.65;25.73;;;;;;;7.71;81.62;92788.66;5069408;28;20107;-45
2021/11/02 03:03:03;;;;;;;41.85;24.80;;;;;;;7.74;81.43;92782.78;5069439;28;20028;-46
2021/11/02 03:05:29;;;;;;;41.10;25.60;;;;;;;7.71;80.74;92777.66;5070023;28;20521;-49
2021/11/02 03:07:55;;;;;;;56.88;34.15;;;;;;;7.49;80.79;92759.84;5088075;28;20119;-48
2021/11/02 03:10:22;;;;;;;51.00;28.05;;;;;;;7.53;80.55;92773.94;5089743;28;20089;-43
2021/11/02 03:12:51;;;;;;;47.95;27.48;;;;;;;7.37;80.10;92742.22;5089697;28;20055;-45
2021/11/02 03:18:10;;;;;;;41.25;25.70;;;;;;;7.54;80.36;92756.16;5090015;28;20028;-43
2021/11/02 04:23:45;;;;;;;35.67;20.40;;;;;;;7.97;79.76;92720.31;5076877;28;20058;-48
2021/11/02 05:09:17;;;;;;;33.40;20.48;;;;;;;8.33;77.52;92645.91;5090181;28;20047;-45
2021/11/02 06:06:49;;;;;;;35.00;19.92;;;;;;;8.55;77.72;92680.88;5067599;28;20118;-47
2021/11/02 06:09:46;;;;;;;30.25;18.77;;;;;;;8.74;77.16;92694.22;5073029;28;20039;-46
2021/11/02 06:27:45;;;;;;;24.63;16.75;;;;;;;9.40;73.61;92671.72;5067321;28;20035;-46
2021/11/02 06:29:16;;;;;;;31.63;19.55;;;;;;;9.40;73.44;92666.22;5069284;28;20039;-46
2021/11/02 06:31:52;;;;;;;25.88;16.52;;;;;;;9.37;73.29;92664.56;5085293;28;20036;-48
2021/11/02 06:42:25;;;;;;;27.73;16.63;;;;;;;9.59;73.08;92669.22;5087112;28;20047;-48
2021/11/02 07:19:32;;;;;;;28.42;18.65;;;;;;;9.80;72.04;92650.31;5127439;27;20617;-51
2021/11/02 08:46:08;;;;;;;27.95;17.83;;;;;;;9.12;78.01;92631.47;5091508;28;20515;-49
2021/11/02 08:48:03;;;;;;;34.13;19.25;;;;;;;9.10;78.47;92632.03;5083972;28;20113;-51
2021/11/02 08:50:42;;;;;;;29.58;18.35;;;;;;;9.11;77.98;92630.75;5091758;28;20123;-48
2021/11/02 08:53:10;;;;;;;33.60;21.40;;;;;;;8.92;79.78;92635.25;5091827;28;20031;-48
2021/11/02 08:55:36;;;;;;;30.55;19.83;;;;;;;8.92;79.86;92641.47;5091724;28;20063;-49
2021/11/02 08:58:04;;;;;;;34.50;20.40;;;;;;;8.98;80.43;92644.03;5091331;28;20400;-50
2021/11/02 09:00:30;;;;;;;32.15;20.17;;;;;;;8.84;80.45;92629.78;5108653;28;20034;-52
2021/11/02 09:03:10;;;;;;;30.85;19.30;;;;;;;8.85;80.78;92638.78;5111359;27;20100;-51
2021/11/02 09:05:36;;;;;;;30.13;20.05;;;;;;;8.78;81.29;92640.25;5109037;28;20023;-54
2021/11/02 09:08:04;;;;;;;34.78;20.23;;;;;;;8.71;81.88;92632.03;5111442;28;20023;-53
2021/11/02 09:10:29;;;;;;;35.20;21.88;;;;;;;8.71;81.95;92629.28;5111678;28;20123;-51
2021/11/02 09:12:57;;;;;;;33.97;19.42;;;;;;;8.78;82.21;92629.25;5111517;28;20714;-53
2021/11/02 09:15:34;;;;;;;32.83;20.25;;;;;;;8.77;82.55;92635.31;5111901;28;20026;-56
2021/11/02 09:18:07;;;;;;;34.92;22.42;;;;;;;8.81;83.93;92638.44;5111398;28;20047;-55
2021/11/02 09:20:34;;;;;;;33.47;20.85;;;;;;;8.84;83.34;92642.81;5111384;28;20114;-51
2021/11/02 09:23:00;;;;;;;35.67;23.58;;;;;;;8.87;83.27;92639.69;5111252;28;20032;-49
2021/11/02 09:25:26;;;;;;;37.80;21.33;;;;;;;8.97;83.05;92643.28;5111611;28;20084;-52
2021/11/02 09:27:52;;;;;;;34.83;22.52;;;;;;;9.03;82.59;92645.84;5111225;28;20027;-48
2021/11/02 09:30:20;;;;;;;42.05;25.00;;;;;;;9.04;82.86;92650.78;5109183;28;20116;-50
2021/11/02 09:32:48;;;;;;;33.78;21.67;;;;;;;9.05;82.78;92635.72;5111138;28;20063;-54
2021/11/02 09:35:16;;;;;;;33.50;20.92;;;;;;;8.93;81.68;92601.66;5111151;28;20035;-55
2021/11/02 09:37:45;;;;;;;32.75;21.77;;;;;;;9.36;81.78;92658.34;5111444;28;20028;-53
2021/11/02 09:40:29;;;;;;;38.40;22.38;;;;;;;9.40;82.51;92655.91;5104088;28;20035;-55
2021/11/02 09:43:06;;;;;;;30.70;19.73;;;;;;;9.43;81.39;92651.31;5110833;28;20055;-48
2021/11/02 09:58:07;;;;;;;40.10;24.58;;;;;;;10.11;77.98;92714.28;5125066;27;20625;-54
2021/11/02 10:01:02;;;;;;;32.58;21.90;;;;;;;9.82;78.26;92713.91;5120611;27;20055;-56
2021/11/02 10:03:43;;;;;;;37.90;21.30;;;;;;;9.65;79.52;92736.63;5124541;27;20599;-50
2021/11/02 10:06:44;;;;;;;29.73;18.50;;;;;;;9.70;79.01;92710.13;5123052;27;20046;-55
2021/11/02 10:09:34;;;;;;;29.23;19.40;;;;;;;9.61;79.90;92730.03;5124823;27;20039;-53
2021/11/02 10:12:08;;;;;;;34.40;19.77;;;;;;;9.45;81.23;92695.56;5116900;28;20031;-57
2021/11/02 10:14:40;;;;;;;32.25;21.42;;;;;;;9.41;81.86;92690.44;5124775;27;20038;-56
2021/11/02 10:17:42;;;;;;;30.00;18.20;;;;;;;9.38;81.56;92686.06;5124876;27;20027;-57
2021/11/02 10:20:42;;;;;;;34.45;20.15;;;;;;;9.46;81.66;92650.19;5111874;28;20500;-60
2021/11/02 10:23:46;;;;;;;32.15;19.55;;;;;;;9.39;82.43;92645.47;5107644;28;20035;-60
2021/11/02 10:26:49;;;;;;;28.02;17.25;;;;;;;9.44;82.33;92631.47;5106443;28;20028;-59
2021/11/02 10:29:37;;;;;;;19.25;12.25;;;;;;;9.46;80.77;92617.88;5107620;28;20080;-59
2021/11/02 10:32:06;;;;;;;20.60;12.83;;;;;;;9.35;80.45;92609.31;5107420;28;20393;-59
2021/11/02 14:05:57;;;;;;;11.32;9.68;;;;;;;12.17;70.52;92564.13;5117300;27;20650;-58
2021/11/02 14:08:25;;;;;;;15.77;10.77;;;;;;;12.12;71.14;92567.19;5113063;28;20055;-59
2021/11/02 14:11:01;;;;;;;18.67;13.13;;;;;;;12.13;71.85;92560.34;5113021;28;20020;-59
2021/11/02 14:13:43;;;;;;;15.23;11.43;;;;;;;12.13;71.37;92572.13;5117172;27;20114;-59
2021/11/02 14:16:09;;;;;;;14.95;11.15;;;;;;;12.04;71.83;92561.06;5113614;28;20063;-58
2021/11/02 14:18:35;;;;;;;34.63;20.63;;;;;;;11.99;71.75;92579.41;5112999;28;20032;-57
2021/11/02 14:21:01;;;;;;;14.23;11.07;;;;;;;12.12;71.93;92579.00;5114997;27;20020;-55
2021/11/02 14:23:29;;;;;;;16.60;10.60;;;;;;;12.09;70.99;92574.59;5116672;28;20515;-57
2021/11/02 14:26:14;;;;;;;16.60;12.37;;;;;;;12.09;69.66;92574.59;5117338;28;20019;-59
2021/11/02 14:28:51;;;;;;;34.88;14.18;;;;;;;11.72;71.60;92572.47;5118241;28;20389;-58
2021/11/02 14:31:38;;;;;;;34.65;21.73;;;;;;;11.38;72.51;92565.03;5113376;27;20042;-57
2021/11/02 14:34:05;;;;;;;16.23;10.18;;;;;;;11.14;74.22;92574.22;5117150;28;20020;-58
2021/11/02 14:36:38;;;;;;;18.65;13.05;;;;;;;11.03;74.03;92583.03;5113019;27;20097;-58
2021/11/02 14:39:04;;;;;;;19.02;11.38;;;;;;;10.98;74.65;92581.28;5113809;27;20548;-58
2021/11/02 14:41:33;;;;;;;17.25;11.93;;;;;;;10.93;74.50;92577.47;5114834;28;20446;-58
2021/11/02 14:44:14;;;;;;;15.20;11.57;;;;;;;10.82;74.64;92577.22;5113484;28;20385;-54
2021/11/02 14:46:40;;;;;;;17.33;14.43;;;;;;;10.77;75.01;92558.88;5114841;28;20101;-57
2021/11/02 14:49:06;;;;;;;16.90;12.60;;;;;;;10.65;75.37;92562.13;5114771;28;20468;-58
2021/11/02 14:51:32;;;;;;;21.08;14.50;;;;;;;10.64;76.19;92591.06;5106996;27;20051;-57
2021/11/02 14:54:19;;;;;;;16.33;11.18;;;;;;;10.56;74.80;92565.59;5110776;28;20055;-58
2021/11/02 14:56:44;;;;;;;15.88;11.32;;;;;;;10.53;75.36;92577.00;5125273;27;20035;-59
2021/11/02 14:59:11;;;;;;;15.75;10.63;;;;;;;10.53;75.23;92588.78;5123832;28;20456;-59
2021/11/02 15:01:37;;;;;;;16.40;11.05;;;;;;;10.41;75.04;92584.34;5123666;28;20073;-59
2021/11/02 15:04:05;;;;;;;15.25;11.25;;;;;;;10.26;75.91;92573.47;5124124;27;20059;-59
2021/11/02 15:06:38;;;;;;;17.20;12.48;;;;;;;10.36;76.46;92579.78;5113195;27;20039;-59
2021/11/02 15:09:12;;;;;;;26.27;16.23;;;;;;;10.41;76.01;92573.28;5108068;28;20487;-59
2021/11/02 15:11:42;;;;;;;20.40;15.43;;;;;;;10.31;76.56;92570.44;5090534;28;20095;-59
2021/11/02 15:14:20;;;;;;;22.35;16.15;;;;;;;10.01;78.05;92570.72;5095208;28;20016;-59
2021/11/02 15:16:51;;;;;;;15.70;11.57;;;;;;;9.98;78.13;92574.63;5110388;28;20134;-59
2021/11/02 15:19:19;;;;;;;15.90;10.50;;;;;;;9.92;77.95;92585.88;5110983;28;20457;-60
2021/11/02 15:21:57;;;;;;;18.67;12.68;;;;;;;9.86;77.39;92590.16;5103154;28;20056;-59
2021/11/02 15:24:38;;;;;;;13.20;9.75;;;;;;;9.75;77.20;92579.59;5098985;28;20093;-59
2021/11/02 15:27:20;;;;;;;26.27;18.02;;;;;;;9.61;78.34;92606.75;5097917;28;20404;-60
2021/11/02 15:29:47;;;;;;;18.08;11.23;;;;;;;9.55;79.26;92595.19;5100539;28;20629;-59
2021/11/02 15:32:20;;;;;;;26.10;18.15;;;;;;;9.44;79.18;92584.63;5098464;28;20028;-60
2021/11/02 15:34:59;;;;;;;22.10;15.13;;;;;;;9.37;79.93;92587.44;5096438;28;20024;-60
2021/11/02 15:37:47;;;;;;;20.13;11.98;;;;;;;9.36;80.48;92583.22;5100100;28;20496;-59
2021/11/02 15:40:21;;;;;;;20.33;13.38;;;;;;;9.28;80.51;92588.78;5096997;28;20102;-59
2021/11/02 15:42:51;;;;;;;19.27;14.30;;;;;;;9.33;80.38;92604.38;5096591;28;20018;-59
2021/11/02 15:45:21;;;;;;;35.60;21.65;;;;;;;9.44;79.67;92594.94;5098498;28;20035;-58
2021/11/02 15:47:53;;;;;;;90.03;48.42;;;;;;;9.55;79.63;92594.47;5098963;28;20026;-59
2021/11/02 15:50:24;;;;;;;20.35;13.43;;;;;;;9.52;80.06;92595.59;5099350;28;20492;-59
2021/11/02 15:52:56;;;;;;;22.15;13.43;;;;;;;9.37;81.14;92592.94;5097900;28;20095;-59
2021/11/02 15:55:24;;;;;;;18.98;12.50;;;;;;;9.59;79.92;92601.06;5098611;28;20178;-59
2021/11/02 15:57:55;;;;;;;21.92;13.32;;;;;;;9.65;79.31;92601.56;5099681;28;20547;-59
2021/11/02 16:00:38;;;;;;;19.17;14.25;;;;;;;9.66;79.17;92611.28;5099031;28;20024;-59
2021/11/02 16:03:04;;;;;;;25.25;15.05;;;;;;;9.67;78.89;92614.78;5098999;28;20027;-59
2021/11/02 16:05:33;;;;;;;19.52;14.27;;;;;;;9.64;79.13;92611.13;5097138;28;20036;-59
2021/11/02 16:08:14;;;;;;;19.52;14.30;;;;;;;9.50;79.21;92598.94;5098347;28;20028;-59
2021/11/02 16:10:40;;;;;;;20.98;15.18;;;;;;;9.42;79.07;92600.97;5099469;28;20027;-59
2021/11/02 16:13:07;;;;;;;29.50;21.65;;;;;;;9.55;79.00;92622.03;5098418;28;20466;-59
2021/11/02 16:15:34;;;;;;;19.98;13.32;;;;;;;9.46;78.94;92628.16;5100276;28;20024;-59
2021/11/02 16:18:04;;;;;;;21.27;14.20;;;;;;;9.53;78.73;92630.84;5095939;28;20910;-59
2021/11/02 16:20:32;;;;;;;17.48;12.10;;;;;;;9.39;78.64;92624.16;5104866;28;20069;-58
2021/11/02 16:23:02;;;;;;;18.65;12.40;;;;;;;9.28;78.90;92637.63;5086788;28;20501;-59
2021/11/02 16:25:31;;;;;;;16.73;12.15;;;;;;;9.33;78.81;92642.19;5089231;28;20479;-59
2021/11/02 16:28:07;;;;;;;16.85;11.38;;;;;;;9.20;79.34;92636.94;5089070;28;20110;-59
2021/11/02 16:30:42;;;;;;;19.73;13.52;;;;;;;9.23;79.74;92636.56;5095773;28;20110;-59
2021/11/02 16:33:10;;;;;;;20.73;13.73;;;;;;;9.10;79.63;92634.78;5109390;27;20147;-59
2021/11/02 16:35:39;;;;;;;23.67;13.77;;;;;;;9.10;80.52;92642.31;5109672;27;20031;-59
2021/11/02 16:38:25;;;;;;;16.73;12.30;;;;;;;8.96;81.01;92647.34;5107281;28;20500;-58
2021/11/02 16:41:20;;;;;;;17.88;12.95;;;;;;;8.77;81.85;92651.84;5103639;28;20027;-59
2021/11/02 16:43:55;;;;;;;19.42;12.73;;;;;;;8.83;81.40;92650.34;5084424;28;20517;-58
2021/11/02 16:46:41;;;;;;;18.38;13.52;;;;;;;8.85;80.13;92647.03;5096735;28;20144;-58
2021/11/02 16:49:21;;;;;;;19.67;12.85;;;;;;;8.85;80.31;92647.03;5096916;28;20031;-58
2021/11/02 16:51:51;;;;;;;17.48;11.85;;;;;;;8.73;79.71;92657.72;5096668;28;20480;-56
2021/11/02 16:54:25;;;;;;;19.77;12.05;;;;;;;8.63;79.52;92667.84;5097125;28;20035;-58
2021/11/02 16:57:02;;;;;;;18.75;13.32;;;;;;;8.42;80.28;92661.84;5101854;28;20032;-58
2021/11/02 16:59:40;;;;;;;19.95;13.27;;;;;;;8.37;81.05;92666.25;5096054;28;20039;-58
2021/11/02 17:02:28;;;;;;;22.70;15.07;;;;;;;8.28;81.35;92669.56;5098907;28;20112;-58
2021/11/02 17:05:12;;;;;;;20.77;13.43;;;;;;;8.29;82.04;92668.28;5097127;28;20039;-59
2021/11/02 17:08:02;;;;;;;140.35;83.35;;;;;;;8.33;80.71;92670.66;5096616;28;20902;-59
2021/11/02 17:10:42;;;;;;;81.63;44.90;;;;;;;8.21;80.37;92664.03;5098642;28;20027;-59
2021/11/02 17:13:13;;;;;;;40.78;26.27;;;;;;;7.85;80.82;92680.75;5098314;28;20508;-59
2021/11/02 17:15:53;;;;;;;30.77;19.67;;;;;;;7.88;80.75;92676.91;5097560;28;20028;-54
2021/11/02 17:18:24;;;;;;;26.95;18.05;;;;;;;8.01;80.16;92673.94;5097374;28;20097;-55
2021/11/02 17:21:01;;;;;;;35.05;17.55;;;;;;;7.78;80.81;92684.22;5096062;28;20019;-56
2021/11/02 17:23:26;;;;;;;34.05;20.13;;;;;;;7.40;81.41;92689.69;5094195;28;20461;-55
2021/11/02 17:25:52;;;;;;;33.30;18.10;;;;;;;6.79;82.90;92653.09;5090502;28;20051;-49
2021/11/02 17:28:19;;;;;;;28.58;16.98;;;;;;;7.07;83.41;92666.00;5087661;28;20024;-58
2021/11/02 17:30:45;;;;;;;23.88;16.30;;;;;;;7.44;82.67;92689.31;5088424;28;20099;-58
2021/11/02 17:33:11;;;;;;;21.33;14.85;;;;;;;7.38;81.65;92680.53;5088249;28;20031;-59
2021/11/02 17:35:37;;;;;;;27.73;14.63;;;;;;;7.32;81.74;92705.41;5091715;28;20505;-59
2021/11/02 17:38:03;;;;;;;24.75;14.50;;;;;;;7.23;82.17;92707.94;5098018;28;20031;-59
2021/11/02 17:40:30;;;;;;;22.15;13.23;;;;;;;7.29;81.71;92709.25;5107850;28;20031;-59
2021/11/02 17:42:58;;;;;;;23.33;15.02;;;;;;;7.18;81.08;92706.84;5108433;28;20031;-59
2021/11/02 17:45:25;;;;;;;18.05;13.25;;;;;;;7.21;80.55;92716.72;5108140;28;20560;-59
2021/11/02 17:47:51;;;;;;;23.52;15.13;;;;;;;7.05;80.34;92719.97;5108055;28;20500;-59
2021/11/02 17:50:19;;;;;;;24.15;15.13;;;;;;;7.16;79.54;92725.88;5107951;28;20066;-59
2021/11/02 17:52:44;;;;;;;25.42;16.00;;;;;;;7.10;80.46;92724.56;5108158;28;20102;-59
2021/11/02 17:55:12;;;;;;;28.50;15.88;;;;;;;7.10;80.87;92730.78;5103531;28;20510;-59
2021/11/02 17:57:38;;;;;;;33.45;21.85;;;;;;;7.03;81.37;92722.50;5093190;28;20565;-59
2021/11/02 18:00:05;;;;;;;28.15;19.80;;;;;;;7.16;80.83;92728.59;5087201;28;20200;-59
2021/11/02 18:02:32;;;;;;;29.90;18.92;;;;;;;7.20;79.67;92725.50;5106287;28;20579;-59
2021/11/02 18:04:58;;;;;;;24.88;17.25;;;;;;;6.60;79.96;92734.22;5095369;28;20044;-59
2021/11/02 18:07:24;;;;;;;38.22;25.38;;;;;;;6.50;80.92;92733.22;5095485;28;20109;-59
2021/11/02 18:09:50;;;;;;;21.83;15.00;;;;;;;6.60;81.18;92740.44;5097997;28;20439;-59
2021/11/02 18:12:16;;;;;;;21.88;14.60;;;;;;;6.64;80.10;92749.03;5097170;28;20049;-59
2021/11/02 18:14:42;;;;;;;22.98;14.30;;;;;;;6.58;80.07;92750.47;5086710;28;20050;-58
2021/11/02 18:17:08;;;;;;;21.90;13.38;;;;;;;6.49;79.79;92753.69;5085361;28;20024;-60
2021/11/02 18:19:35;;;;;;;22.42;14.93;;;;;;;6.39;80.05;92753.44;5100241;28;20024;-59
2021/11/02 18:22:01;;;;;;;24.80;16.08;;;;;;;6.39;80.12;92763.69;5095247;28;20446;-58
2021/11/02 18:24:27;;;;;;;21.65;15.00;;;;;;;6.56;79.33;92753.03;5094251;28;20038;-58
2021/11/02 18:26:52;;;;;;;22.92;14.85;;;;;;;6.56;79.60;92769.47;5106031;28;20066;-59
2021/11/02 18:29:19;;;;;;;19.85;13.45;;;;;;;6.40;79.30;92773.38;5107055;28;20037;-59
2021/11/02 18:31:44;;;;;;;22.13;14.32;;;;;;;6.25;79.39;92768.53;5108097;28;20030;-59
2021/11/02 18:34:10;;;;;;;46.08;25.88;;;;;;;6.11;80.79;92781.56;5107481;28;20388;-58
2021/11/02 18:36:36;;;;;;;32.55;18.75;;;;;;;6.31;80.90;92771.84;5107967;28;20059;-59
2021/11/02 18:39:03;;;;;;;31.05;17.77;;;;;;;6.39;81.09;92777.41;5107808;28;20074;-59
2021/11/02 18:41:28;;;;;;;60.78;36.35;;;;;;;6.28;80.76;92778.41;5109667;28;20030;-59
2021/11/02 18:43:56;;;;;;;47.50;30.15;;;;;;;6.42;80.67;92781.81;5111732;28;20028;-59
2021/11/02 18:46:23;;;;;;;44.03;26.25;;;;;;;6.29;80.95;92766.19;5111410;28;20412;-59
2021/11/02 18:48:48;;;;;;;57.60;34.97;;;;;;;6.32;80.31;92764.38;5111790;28;20050;-59
2021/11/02 18:51:14;;;;;;;72.28;38.80;;;;;;;6.11;80.88;92781.56;5107662;28;20505;-59
2021/11/02 18:53:40;;;;;;;67.63;41.75;;;;;;;6.03;81.60;92777.31;5089348;28;20016;-59
2021/11/02 18:56:09;;;;;;;58.17;32.78;;;;;;;6.02;82.63;92790.25;5105437;28;20112;-59
2021/11/02 18:58:36;;;;;;;44.53;23.42;;;;;;;6.17;83.50;92792.41;5106149;28;20024;-59
2021/11/02 19:01:02;;;;;;;65.30;39.60;;;;;;;6.22;84.14;92790.78;5103739;28;20028;-58
2021/11/02 19:03:28;;;;;;;55.45;36.78;;;;;;;6.18;82.43;92804.09;5093021;28;20107;-59
2021/11/02 19:05:53;;;;;;;57.47;33.58;;;;;;;5.82;81.83;92793.72;5090713;28;20166;-58
2021/11/02 19:08:19;;;;;;;44.60;28.58;;;;;;;5.69;83.03;92812.22;5090428;28;20028;-58
2021/11/02 19:10:46;;;;;;;34.47;23.13;;;;;;;5.50;82.83;92801.41;5090449;28;20027;-58
2021/11/02 19:13:12;;;;;;;31.05;19.20;;;;;;;5.58;82.93;92812.44;5090785;28;20024;-58
2021/11/02 19:15:40;;;;;;;31.88;18.55;;;;;;;5.39;83.80;92807.16;5097988;28;20019;-59
2021/11/02 19:18:06;;;;;;;29.75;19.70;;;;;;;5.50;84.80;92822.59;5104404;28;20500;-59
2021/11/02 19:20:31;;;;;;;27.90;17.02;;;;;;;5.70;83.04;92833.56;5098684;28;20038;-58
2021/11/02 19:22:57;;;;;;;42.97;20.98;;;;;;;5.66;82.58;92835.91;5098802;28;20020;-59
2021/11/02 19:25:23;;;;;;;37.20;21.52;;;;;;;5.90;80.92;92838.38;5101324;28;20759;-58
2021/11/02 19:27:49;;;;;;;36.10;19.75;;;;;;;5.92;79.53;92835.09;5098089;28;20027;-59
2021/11/02 19:30:15;;;;;;;41.95;24.35;;;;;;;5.68;81.06;92843.59;5095780;28;20408;-59
2021/11/02 19:32:40;;;;;;;53.20;29.73;;;;;;;5.68;81.12;92849.06;5099994;28;20694;-59
2021/11/02 19:35:07;;;;;;;58.15;32.53;;;;;;;5.75;80.23;92853.91;5100756;28;20027;-59
2021/11/02 19:37:33;;;;;;;59.65;33.80;;;;;;;5.66;80.72;92848.88;5099651;28;20027;-59
2021/11/02 19:39:58;;;;;;;54.28;31.73;;;;;;;5.60;80.97;92837.28;5100856;28;20031;-56
2021/11/02 19:42:24;;;;;;;59.63;35.72;;;;;;;5.72;80.33;92838.50;5105330;28;20110;-58
2021/11/02 19:44:49;;;;;;;61.80;35.20;;;;;;;5.62;80.36;92840.25;5107484;28;20484;-59
2021/11/02 19:47:16;;;;;;;62.83;32.15;;;;;;;5.65;80.72;92855.63;5106997;28;20027;-59
2021/11/02 19:49:43;;;;;;;101.90;46.10;;;;;;;5.73;81.29;92848.97;5088187;28;20024;-58
2021/11/02 19:52:09;;;;;;;80.45;39.13;;;;;;;5.79;81.11;92857.03;5099141;28;20581;-59
2021/11/02 19:54:36;;;;;;;81.05;37.83;;;;;;;5.67;80.95;92864.78;5098639;28;20035;-59
2021/11/02 19:57:03;;;;;;;187.88;56.00;;;;;;;5.74;80.88;92852.44;5100231;28;20507;-58
2021/11/02 19:59:29;;;;;;;165.68;48.17;;;;;;;5.71;81.17;92876.13;5092165;28;20036;-59
2021/11/02 20:01:56;;;;;;;136.52;47.28;;;;;;;5.60;81.36;92862.69;5092328;28;20169;-58
2021/11/02 20:04:22;;;;;;;125.75;42.58;;;;;;;5.79;81.80;92876.22;5109016;28;20409;-59
2021/11/02 20:06:54;;;;;;;131.77;40.67;;;;;;;5.67;81.57;92875.75;5110132;28;20035;-58
2021/11/02 20:09:25;;;;;;;90.30;39.15;;;;;;;5.61;81.29;92877.84;5106856;28;20031;-58
2021/11/02 20:11:59;;;;;;;105.78;35.63;;;;;;;5.34;82.05;92887.38;5106977;28;20485;-59
2021/11/02 20:14:26;;;;;;;115.47;32.95;;;;;;;5.52;81.72;92886.50;5104543;28;20054;-54
2021/11/02 20:16:57;;;;;;;126.43;40.30;;;;;;;5.69;80.84;92884.16;5100255;28;20028;-50
2021/11/02 20:19:25;;;;;;;139.85;43.75;;;;;;;5.65;81.19;92883.00;5101791;28;20039;-50
2021/11/02 20:21:51;;;;;;;142.18;51.42;;;;;;;5.72;81.17;92887.81;5102353;28;20157;-54
2021/11/02 20:24:19;;;;;;;118.00;44.92;;;;;;;5.69;80.94;92892.38;5102005;28;20024;-51
2021/11/02 20:26:45;;;;;;;78.97;30.80;;;;;;;5.56;80.75;92892.41;5101866;28;20028;-49
2021/11/02 20:29:11;;;;;;;56.40;26.25;;;;;;;5.47;81.06;92897.56;5099711;28;20516;-48